createdAt,value
2022-11-26T00:00:21.193Z,6.57
2022-11-26T00:02:54.315Z,6.61
2022-11-26T00:05:31.114Z,6.66
2022-11-26T00:08:05.079Z,6.71
2022-11-26T00:10:36.848Z,6.76
2022-11-26T00:13:18.034Z,6.78
2022-11-26T00:15:50.177Z,6.76
2022-11-26T00:18:26.849Z,6.76
2022-11-26T00:21:00.948Z,6.77
2022-11-26T00:23:32.704Z,6.76
2022-11-26T00:26:10.732Z,6.79
2022-11-26T00:28:57.875Z,6.78
2022-11-26T00:31:29.685Z,6.77
2022-11-26T00:34:01.404Z,6.79
2022-11-26T00:36:33.435Z,6.85
2022-11-26T00:39:10.028Z,6.88
2022-11-26T00:41:41.656Z,6.83
2022-11-26T00:44:25.019Z,6.86
2022-11-26T00:46:59.941Z,6.84
2022-11-26T00:49:34.700Z,6.83
2022-11-26T00:52:23.782Z,6.85
2022-11-26T00:54:57.651Z,6.86
2022-11-26T00:57:29.282Z,6.81
2022-11-26T01:00:00.958Z,6.84
2022-11-26T01:02:32.605Z,6.87
2022-11-26T01:05:04.930Z,6.90
2022-11-26T01:07:36.967Z,6.99
2022-11-26T01:10:21.332Z,6.96
2022-11-26T01:12:53.442Z,6.96
2022-11-26T01:15:26.910Z,6.97
2022-11-26T01:17:58.577Z,6.95
2022-11-26T01:20:31.199Z,6.98
2022-11-26T01:23:02.849Z,7.02
2022-11-26T01:25:34.611Z,7.08
2022-11-26T01:28:10.947Z,7.10
2022-11-26T01:30:43.212Z,7.13
2022-11-26T01:33:15.984Z,7.13
2022-11-26T01:35:47.645Z,7.16
2022-11-26T01:38:19.390Z,7.18
2022-11-26T01:41:05.437Z,7.19
2022-11-26T01:43:41.948Z,7.22
2022-11-26T01:46:16.354Z,7.22
2022-11-26T01:48:50.188Z,7.28
2022-11-26T01:51:27.177Z,7.28
2022-11-26T01:54:02.180Z,7.26
2022-11-26T01:56:51.537Z,7.29
2022-11-26T01:59:30.248Z,7.29
2022-11-26T02:02:02.399Z,7.27
2022-11-26T02:04:41.963Z,7.23
2022-11-26T02:07:13.757Z,7.22
2022-11-26T02:09:46.720Z,7.17
2022-11-26T02:12:18.580Z,7.18
2022-11-26T02:14:50.265Z,7.15
2022-11-26T02:17:45.920Z,7.11
2022-11-26T02:20:48.453Z,7.15
2022-11-26T02:23:32.401Z,7.12
2022-11-26T02:26:21.878Z,7.15
2022-11-26T02:28:59.643Z,7.16
2022-11-26T02:31:41.999Z,7.15
2022-11-26T02:34:25.004Z,7.16
2022-11-26T02:37:12.746Z,7.17
2022-11-26T02:39:44.410Z,7.16
2022-11-26T02:42:29.457Z,7.15
2022-11-26T02:45:06.988Z,7.15
2022-11-26T02:47:42.366Z,7.14
2022-11-26T02:50:20.196Z,7.12
2022-11-26T02:52:54.677Z,7.12
2022-11-26T02:55:32.381Z,7.14
2022-11-26T02:58:05.523Z,7.13
2022-11-26T03:00:41.344Z,7.15
2022-11-26T03:03:26.546Z,7.12
2022-11-26T03:06:01.119Z,7.11
2022-11-26T03:08:33.274Z,7.09
2022-11-26T03:11:05.977Z,7.06
2022-11-26T03:13:37.639Z,7.05
2022-11-26T03:16:09.403Z,7.04
2022-11-26T03:18:41.098Z,7.01
2022-11-26T03:21:12.801Z,6.96
2022-11-26T03:23:44.523Z,6.88
2022-11-26T03:26:16.222Z,6.85
2022-11-26T03:28:47.872Z,6.82
2022-11-26T03:31:19.597Z,6.78
2022-11-26T03:33:51.249Z,6.80
2022-11-26T03:36:22.849Z,6.77
2022-11-26T03:38:54.596Z,6.81
2022-11-26T03:41:26.271Z,6.77
2022-11-26T03:43:57.860Z,6.74
2022-11-26T03:46:29.878Z,6.74
2022-11-26T03:49:01.532Z,6.70
2022-11-26T03:51:33.283Z,6.68
2022-11-26T03:54:06.057Z,6.63
2022-11-26T03:56:37.740Z,6.64
2022-11-26T03:59:09.375Z,6.65
2022-11-26T04:01:42.258Z,6.63
2022-11-26T04:04:13.901Z,6.64
2022-11-26T04:06:45.737Z,6.64
2022-11-26T04:09:17.420Z,6.65
2022-11-26T04:11:52.050Z,6.66
2022-11-26T04:14:24.147Z,6.66
2022-11-26T04:16:55.865Z,6.67
2022-11-26T04:19:27.519Z,6.63
2022-11-26T04:21:59.304Z,6.55
2022-11-26T04:24:30.911Z,6.49
2022-11-26T04:27:02.612Z,6.42
2022-11-26T04:29:34.312Z,6.43
2022-11-26T04:32:06.416Z,6.41
2022-11-26T04:34:38.666Z,6.41
2022-11-26T04:37:10.550Z,6.41
2022-11-26T04:39:42.553Z,6.41
2022-11-26T04:42:14.237Z,6.41
2022-11-26T04:44:45.825Z,6.42
2022-11-26T04:47:17.577Z,6.39
2022-11-26T04:49:49.193Z,6.39
2022-11-26T04:52:20.844Z,6.38
2022-11-26T04:54:52.500Z,6.36
2022-11-26T04:57:24.127Z,6.35
2022-11-26T04:59:58.200Z,6.31
2022-11-26T05:02:29.887Z,6.28
2022-11-26T05:05:01.796Z,6.27
2022-11-26T05:07:34.129Z,6.27
2022-11-26T05:10:08.889Z,6.28
2022-11-26T05:12:40.745Z,6.33
2022-11-26T05:15:12.576Z,6.37
2022-11-26T05:17:44.356Z,6.38
2022-11-26T05:20:16.138Z,6.39
2022-11-26T05:22:47.773Z,6.42
2022-11-26T05:25:19.436Z,6.45
2022-11-26T05:27:51.022Z,6.48
2022-11-26T05:30:22.672Z,6.51
2022-11-26T05:32:54.374Z,6.50
2022-11-26T05:35:25.996Z,6.52
2022-11-26T05:37:57.745Z,6.56
2022-11-26T05:40:29.423Z,6.60
2022-11-26T05:43:01.069Z,6.64
2022-11-26T05:45:32.795Z,6.67
2022-11-26T05:48:04.812Z,6.69
2022-11-26T05:50:36.667Z,6.73
2022-11-26T05:53:08.348Z,6.76
2022-11-26T05:55:40.385Z,6.77
2022-11-26T05:58:12.016Z,6.78
2022-11-26T06:00:43.818Z,6.82
2022-11-26T06:03:19.748Z,6.82
2022-11-26T06:05:51.881Z,6.83
2022-11-26T06:08:23.630Z,6.85
2022-11-26T06:10:55.367Z,6.83
2022-11-26T06:13:27.104Z,6.77
2022-11-26T06:15:59.652Z,6.80
2022-11-26T06:18:31.466Z,6.78
2022-11-26T06:21:05.143Z,6.82
2022-11-26T06:23:36.803Z,6.84
2022-11-26T06:26:10.573Z,6.84
2022-11-26T06:28:42.284Z,6.88
2022-11-26T06:31:15.284Z,6.90
2022-11-26T06:33:47.152Z,6.93
2022-11-26T06:36:18.748Z,6.95
2022-11-26T06:38:50.784Z,6.95
2022-11-26T06:41:22.494Z,6.95
2022-11-26T06:43:54.188Z,6.95
2022-11-26T06:46:25.828Z,6.96
2022-11-26T06:49:05.488Z,6.97
2022-11-26T06:51:37.114Z,6.99
2022-11-26T06:54:08.781Z,7.02
2022-11-26T06:56:40.328Z,7.04
2022-11-26T06:59:12.006Z,7.02
2022-11-26T07:01:43.662Z,7.02
2022-11-26T07:04:15.524Z,7.06
2022-11-26T07:06:47.226Z,7.10
2022-11-26T07:09:18.854Z,7.24
2022-11-26T07:11:50.573Z,7.19
2022-11-26T07:14:22.712Z,7.15
2022-11-26T07:16:54.320Z,7.14
2022-11-26T07:19:26.247Z,7.12
2022-11-26T07:21:57.864Z,7.10
2022-11-26T07:24:29.520Z,7.17
2022-11-26T07:27:01.108Z,7.21
2022-11-26T07:29:32.776Z,7.29
2022-11-26T07:32:04.544Z,7.36
2022-11-26T07:34:36.522Z,7.44
2022-11-26T07:37:08.349Z,7.55
2022-11-26T07:39:40.058Z,7.69
2022-11-26T07:42:11.680Z,7.82
2022-11-26T07:44:43.308Z,8.16
2022-11-26T07:47:14.866Z,8.21
2022-11-26T07:49:49.204Z,8.22
2022-11-26T07:52:21.846Z,8.28
2022-11-26T07:54:53.499Z,8.89
2022-11-26T07:57:25.325Z,9.14
2022-11-26T07:59:57.115Z,9.87
2022-11-26T08:02:28.734Z,9.96
2022-11-26T08:05:00.360Z,9.91
2022-11-26T08:07:32.086Z,9.81
2022-11-26T08:10:05.140Z,9.76
2022-11-26T08:12:37.051Z,9.70
2022-11-26T08:15:09.366Z,9.57
2022-11-26T08:17:40.987Z,9.43
2022-11-26T08:20:12.766Z,9.36
2022-11-26T08:22:44.454Z,9.34
2022-11-26T08:25:16.494Z,9.36
2022-11-26T08:27:48.283Z,9.54
2022-11-26T08:30:20.006Z,9.52
2022-11-26T08:32:51.632Z,9.40
2022-11-26T08:35:34.403Z,9.36
2022-11-26T08:38:15.047Z,9.37
2022-11-26T08:40:49.884Z,9.19
2022-11-26T08:43:27.671Z,9.08
2022-11-26T08:46:11.465Z,8.97
2022-11-26T08:48:43.312Z,8.92
2022-11-26T08:51:17.718Z,8.95
2022-11-26T08:53:49.378Z,8.97
2022-11-26T08:56:25.809Z,9.01
2022-11-26T08:58:57.948Z,9.07
2022-11-26T09:01:32.630Z,9.12
2022-11-26T09:04:04.828Z,9.16
2022-11-26T09:06:37.135Z,9.23
2022-11-26T09:09:17.494Z,9.26
2022-11-26T09:11:57.667Z,9.28
2022-11-26T09:14:35.511Z,9.17
2022-11-26T09:17:09.937Z,9.18
2022-11-26T09:19:42.013Z,9.13
2022-11-26T09:22:14.727Z,9.12
2022-11-26T09:24:46.352Z,9.04
2022-11-26T09:27:18.232Z,9.02
2022-11-26T09:29:49.937Z,9.09
2022-11-26T09:32:26.137Z,9.09
2022-11-26T09:35:01.401Z,9.07
2022-11-26T09:37:33.224Z,9.09
2022-11-26T09:40:05.301Z,9.12
2022-11-26T09:43:14.756Z,9.18
2022-11-26T09:45:52.666Z,9.20
2022-11-26T09:48:26.309Z,9.26
2022-11-26T09:51:09.601Z,9.30
2022-11-26T09:53:45.982Z,9.29
2022-11-26T09:56:25.579Z,9.32
2022-11-26T09:59:01.793Z,9.32
2022-11-26T10:01:34.559Z,9.44
2022-11-26T10:04:07.798Z,9.63
2022-11-26T10:07:07.148Z,10.78
2022-11-26T10:10:20.164Z,11.68
2022-11-26T10:13:19.056Z,12.55
2022-11-26T10:16:03.807Z,14.65
2022-11-26T10:19:04.816Z,15.95
2022-11-26T10:21:59.810Z,17.25
2022-11-26T10:24:38.531Z,17.96
2022-11-26T10:27:15.681Z,18.65
2022-11-26T10:29:58.820Z,19.33
2022-11-26T10:32:42.332Z,19.51
2022-11-26T10:35:29.077Z,19.08
2022-11-26T10:38:03.734Z,18.90
2022-11-26T10:40:35.589Z,19.01
2022-11-26T10:43:12.815Z,19.40
2022-11-26T10:45:54.807Z,19.76
2022-11-26T10:48:30.415Z,19.87
2022-11-26T10:51:06.391Z,19.85
2022-11-26T10:53:50.933Z,19.22
2022-11-26T10:56:29.118Z,19.12
2022-11-26T10:59:05.099Z,18.72
2022-11-26T11:01:40.700Z,17.96
2022-11-26T11:04:32.093Z,17.22
2022-11-26T11:07:11.807Z,16.49
2022-11-26T11:09:43.778Z,16.08
2022-11-26T11:12:23.398Z,15.73
2022-11-26T11:14:55.108Z,15.85
2022-11-26T11:17:36.942Z,16.23
2022-11-26T11:20:22.101Z,16.42
2022-11-26T11:23:00.126Z,15.88
2022-11-26T11:25:38.569Z,15.69
2022-11-26T11:28:13.167Z,15.14
2022-11-26T11:30:46.353Z,15.16
2022-11-26T11:33:21.887Z,14.88
2022-11-26T11:36:05.555Z,14.98
2022-11-26T11:38:58.715Z,15.18
2022-11-26T11:41:39.704Z,15.23
2022-11-26T11:44:43.730Z,15.03
2022-11-26T11:47:42.977Z,14.44
2022-11-26T11:50:29.479Z,14.12
2022-11-26T11:53:09.955Z,13.91
2022-11-26T11:56:03.001Z,13.55
2022-11-26T11:58:52.837Z,13.23
2022-11-26T12:01:46.412Z,12.92
2022-11-26T12:04:21.567Z,12.71
2022-11-26T12:07:26.552Z,12.60
2022-11-26T12:10:24.409Z,12.83
2022-11-26T12:13:02.356Z,12.73
2022-11-26T12:15:43.073Z,12.61
2022-11-26T12:18:36.131Z,12.44
2022-11-26T12:21:25.397Z,12.16
2022-11-26T12:24:04.336Z,11.87
2022-11-26T12:26:47.674Z,11.74
2022-11-26T12:29:36.922Z,11.62
2022-11-26T12:32:25.403Z,11.46
2022-11-26T12:35:01.285Z,11.41
2022-11-26T12:37:39.596Z,11.58
2022-11-26T12:40:35.556Z,11.46
2022-11-26T12:43:13.504Z,11.45
2022-11-26T12:46:16.104Z,11.58
2022-11-26T12:49:03.389Z,11.88
2022-11-26T12:52:07.372Z,12.02
2022-11-26T12:55:00.305Z,12.12
2022-11-26T12:57:42.164Z,12.16
2022-11-26T13:00:25.673Z,12.06
2022-11-26T13:02:58.999Z,11.85
2022-11-26T13:05:58.334Z,11.57
2022-11-26T13:08:47.653Z,11.37
2022-11-26T13:11:40.774Z,11.17
2022-11-26T13:14:35.464Z,11.17
2022-11-26T13:17:16.322Z,11.22
2022-11-26T13:19:56.509Z,11.06
2022-11-26T13:22:46.665Z,10.97
2022-11-26T13:25:52.753Z,10.90
2022-11-26T13:29:20.891Z,10.75
2022-11-26T13:32:30.354Z,10.68
2022-11-26T13:35:18.865Z,10.61
2022-11-26T13:38:12.051Z,10.52
2022-11-26T13:41:07.924Z,10.40
2022-11-26T13:44:10.351Z,10.29
2022-11-26T13:46:55.738Z,10.29
2022-11-26T13:49:39.536Z,10.18
2022-11-26T13:52:11.170Z,10.15
2022-11-26T13:54:50.918Z,10.02
2022-11-26T13:57:31.466Z,10.02
2022-11-26T14:00:03.973Z,9.94
2022-11-26T14:02:56.953Z,9.91
2022-11-26T14:05:57.394Z,9.88
2022-11-26T14:08:55.869Z,9.86
2022-11-26T14:11:45.597Z,9.80
2022-11-26T14:14:26.255Z,9.80
2022-11-26T14:17:00.864Z,9.76
2022-11-26T14:19:41.440Z,9.73
2022-11-26T14:22:21.657Z,9.73
2022-11-26T14:25:04.310Z,9.74
2022-11-26T14:27:40.769Z,9.73
2022-11-26T14:30:16.639Z,9.75
2022-11-26T14:33:00.589Z,9.73
2022-11-26T14:35:36.286Z,9.69
2022-11-26T14:38:23.890Z,9.71
2022-11-26T14:40:58.108Z,9.72
2022-11-26T14:43:29.942Z,9.65
2022-11-26T14:46:12.984Z,9.64
2022-11-26T14:48:49.955Z,9.61
2022-11-26T14:51:26.041Z,9.56
2022-11-26T14:53:59.826Z,9.50
2022-11-26T14:56:31.811Z,9.49
2022-11-26T14:59:05.457Z,9.46
2022-11-26T15:01:42.819Z,9.44
2022-11-26T15:04:38.870Z,9.43
2022-11-26T15:07:24.792Z,9.41
2022-11-26T15:10:16.635Z,9.41
2022-11-26T15:12:53.093Z,9.44
2022-11-26T15:15:24.896Z,9.43
2022-11-26T15:18:01.178Z,9.42
2022-11-26T15:20:33.916Z,9.40
2022-11-26T15:23:06.852Z,9.42
2022-11-26T15:25:45.851Z,9.38
2022-11-26T15:28:23.719Z,9.40
2022-11-26T15:31:02.982Z,9.44
2022-11-26T15:33:37.094Z,9.43
2022-11-26T15:36:12.928Z,9.45
2022-11-26T15:39:07.329Z,9.47
2022-11-26T15:41:42.395Z,9.54
2022-11-26T15:44:22.320Z,9.53
2022-11-26T15:46:57.118Z,9.53
2022-11-26T15:49:40.588Z,9.48
2022-11-26T15:52:15.404Z,9.47
2022-11-26T15:55:12.830Z,9.41
2022-11-26T15:57:51.399Z,9.36
2022-11-26T16:00:33.347Z,9.36
2022-11-26T16:03:34.821Z,9.29
2022-11-26T16:06:08.513Z,9.29
2022-11-26T16:08:57.677Z,9.22
2022-11-26T16:11:31.629Z,9.22
2022-11-26T16:14:22.993Z,9.20
2022-11-26T16:16:57.082Z,9.15
2022-11-26T16:19:30.136Z,9.14
2022-11-26T16:22:05.946Z,9.20
2022-11-26T16:24:42.688Z,9.18
2022-11-26T16:27:17.857Z,9.15
2022-11-26T16:29:49.698Z,9.14
2022-11-26T16:32:21.689Z,9.17
2022-11-26T16:34:53.422Z,9.12
2022-11-26T16:37:29.910Z,9.11
2022-11-26T16:40:16.955Z,9.10
2022-11-26T16:42:50.609Z,9.10
2022-11-26T16:45:22.195Z,9.11
2022-11-26T16:47:55.327Z,9.12
2022-11-26T16:50:27.966Z,9.16
2022-11-26T16:52:59.704Z,9.16
2022-11-26T16:55:31.416Z,9.17
2022-11-26T16:58:04.639Z,9.17
2022-11-26T17:00:36.289Z,9.18
2022-11-26T17:03:12.919Z,9.17
2022-11-26T17:05:46.198Z,9.13
2022-11-26T17:08:18.179Z,9.06
2022-11-26T17:10:52.632Z,9.04
2022-11-26T17:13:25.337Z,9.02
2022-11-26T17:15:57.830Z,8.98
2022-11-26T17:18:29.550Z,8.97
2022-11-26T17:21:01.260Z,8.97
2022-11-26T17:23:38.020Z,8.96
2022-11-26T17:26:20.896Z,8.95
2022-11-26T17:28:52.637Z,8.93
2022-11-26T17:31:24.345Z,8.90
2022-11-26T17:33:56.226Z,8.85
2022-11-26T17:36:35.338Z,8.83
2022-11-26T17:39:11.101Z,8.78
2022-11-26T17:41:42.828Z,8.75
2022-11-26T17:44:14.435Z,8.72
2022-11-26T17:47:09.536Z,8.71
2022-11-26T17:49:38.966Z,8.64
2022-11-26T17:52:11.187Z,8.59
2022-11-26T17:54:45.604Z,8.56
2022-11-26T17:57:17.580Z,8.50
2022-11-26T17:59:49.259Z,8.46
2022-11-26T18:02:20.913Z,8.39
2022-11-26T18:04:52.684Z,8.35
2022-11-26T18:07:24.378Z,8.30
2022-11-26T18:09:57.409Z,8.23
2022-11-26T18:12:31.734Z,8.17
2022-11-26T18:15:04.165Z,8.07
2022-11-26T18:17:36.067Z,8.02
2022-11-26T18:20:10.232Z,7.97
2022-11-26T18:22:42.207Z,7.94
2022-11-26T18:25:14.257Z,7.90
2022-11-26T18:27:48.930Z,7.85
2022-11-26T18:30:23.156Z,7.79
2022-11-26T18:32:54.804Z,7.74
2022-11-26T18:35:28.977Z,7.69
2022-11-26T18:38:00.599Z,7.65
2022-11-26T18:40:32.306Z,7.61
2022-11-26T18:43:04.912Z,7.55
2022-11-26T18:45:36.761Z,7.50
2022-11-26T18:48:08.441Z,7.43
2022-11-26T18:50:42.642Z,7.37
2022-11-26T18:53:14.329Z,7.33
2022-11-26T18:55:46.184Z,7.30
2022-11-26T18:58:18.601Z,7.28
2022-11-26T19:00:51.353Z,7.24
2022-11-26T19:03:22.990Z,7.23
2022-11-26T19:05:59.285Z,7.20
2022-11-26T19:08:32.306Z,7.19
2022-11-26T19:11:27.884Z,7.17
2022-11-26T19:14:00.237Z,7.15
2022-11-26T19:16:32.073Z,7.11
2022-11-26T19:19:03.815Z,7.10
2022-11-26T19:21:35.995Z,7.13
2022-11-26T19:24:08.884Z,7.13
2022-11-26T19:26:43.608Z,7.12
2022-11-26T19:29:18.002Z,7.14
2022-11-26T19:31:49.985Z,7.14
2022-11-26T19:34:21.613Z,7.16
2022-11-26T19:36:56.653Z,7.18
2022-11-26T19:39:28.282Z,7.20
2022-11-26T19:42:00.213Z,7.21
2022-11-26T19:44:31.893Z,7.21
2022-11-26T19:47:04.281Z,7.21
2022-11-26T19:49:35.948Z,7.22
2022-11-26T19:52:07.617Z,7.19
2022-11-26T19:54:39.660Z,7.15
2022-11-26T19:57:11.226Z,7.16
2022-11-26T19:59:42.850Z,7.17
2022-11-26T20:02:15.629Z,7.19
2022-11-26T20:04:47.552Z,7.15
2022-11-26T20:07:19.233Z,7.10
2022-11-26T20:09:52.379Z,7.04
2022-11-26T20:12:24.030Z,7.01
2022-11-26T20:14:55.607Z,7.08
2022-11-26T20:17:27.310Z,7.10
2022-11-26T20:19:59.143Z,7.11
2022-11-26T20:22:30.830Z,7.12
2022-11-26T20:25:02.464Z,7.08
2022-11-26T20:27:34.058Z,7.09
2022-11-26T20:30:06.724Z,7.13
2022-11-26T20:32:38.635Z,7.17
2022-11-26T20:35:11.108Z,7.11
2022-11-26T20:37:43.003Z,7.14
2022-11-26T20:40:15.788Z,7.15
2022-11-26T20:42:47.468Z,7.18
2022-11-26T20:45:19.461Z,7.21
2022-11-26T20:47:51.034Z,7.15
2022-11-26T20:50:22.866Z,7.14
2022-11-26T20:52:54.634Z,7.16
2022-11-26T20:55:26.276Z,7.16
2022-11-26T20:57:57.905Z,7.17
2022-11-26T21:00:29.537Z,7.15
2022-11-26T21:03:01.293Z,7.14
2022-11-26T21:05:33.658Z,7.15
2022-11-26T21:08:05.444Z,7.16
2022-11-26T21:10:39.394Z,7.11
2022-11-26T21:13:14.945Z,7.11
2022-11-26T21:15:49.423Z,7.10
2022-11-26T21:18:21.100Z,7.07
2022-11-26T21:20:53.980Z,7.06
2022-11-26T21:23:27.030Z,7.00
2022-11-26T21:25:58.633Z,6.97
2022-11-26T21:28:30.278Z,6.96
2022-11-26T21:31:17.137Z,6.95
2022-11-26T21:33:56.129Z,6.93
2022-11-26T21:36:29.656Z,6.89
2022-11-26T21:39:02.177Z,6.86
2022-11-26T21:41:34.222Z,6.81
2022-11-26T21:44:05.891Z,6.77
2022-11-26T21:46:38.798Z,6.75
2022-11-26T21:49:11.074Z,6.72
2022-11-26T21:51:43.006Z,6.73
2022-11-26T21:54:14.718Z,6.74
2022-11-26T21:56:46.308Z,6.74
2022-11-26T21:59:18.081Z,6.75
2022-11-26T22:01:49.870Z,6.75
2022-11-26T22:04:21.752Z,6.73
2022-11-26T22:06:53.506Z,6.70
2022-11-26T22:09:25.163Z,6.66
2022-11-26T22:11:56.730Z,6.63
2022-11-26T22:14:31.420Z,6.61
2022-11-26T22:17:03.540Z,6.56
2022-11-26T22:19:35.400Z,6.52
2022-11-26T22:22:06.970Z,6.48
2022-11-26T22:24:38.644Z,6.44
2022-11-26T22:27:10.616Z,6.40
2022-11-26T22:29:42.568Z,6.36
2022-11-26T22:32:14.307Z,6.32
2022-11-26T22:34:45.957Z,6.27
2022-11-26T22:37:17.562Z,6.26
2022-11-26T22:39:53.695Z,6.21
2022-11-26T22:42:25.789Z,6.14
2022-11-26T22:44:57.454Z,6.09
2022-11-26T22:47:29.035Z,6.04
2022-11-26T22:50:03.163Z,5.99
2022-11-26T22:52:34.889Z,5.97
2022-11-26T22:55:06.807Z,5.93
2022-11-26T22:57:38.406Z,5.87
2022-11-26T23:00:14.218Z,5.83
2022-11-26T23:02:46.070Z,5.80
2022-11-26T23:05:17.869Z,5.76
2022-11-26T23:07:49.497Z,5.71
2022-11-26T23:10:21.320Z,5.61
2022-11-26T23:12:52.948Z,5.58
2022-11-26T23:15:24.576Z,5.52
2022-11-26T23:17:56.233Z,5.47
2022-11-26T23:20:27.989Z,5.44
2022-11-26T23:23:03.382Z,5.47
2022-11-26T23:25:39.174Z,5.46
2022-11-26T23:28:10.787Z,5.46
2022-11-26T23:30:42.396Z,5.47
2022-11-26T23:33:14.008Z,5.48
2022-11-26T23:35:45.692Z,5.46
2022-11-26T23:38:17.262Z,5.44
2022-11-26T23:40:56.720Z,5.44
2022-11-26T23:43:29.576Z,5.42
2022-11-26T23:46:08.380Z,5.40
2022-11-26T23:48:40.597Z,5.34
2022-11-26T23:51:18.565Z,5.26
2022-11-26T23:53:50.817Z,5.25
2022-11-26T23:56:28.498Z,5.22
2022-11-26T23:59:02.810Z,5.18
